Time;durP1;ratioP1;P1;durP2;ratioP2;P2;SDS_P1;SDS_P2;PMS_P1;PMS_P2;Temp;Humidity;BMP_temperature;BMP_pressure;BME280_temperature;BME280_humidity;BME280_pressure;Samples;Min_cycle;Max_cycle;Signal;HPM_P1;HPM_P2
2023/02/01 00:01:50;;;;;;;22.13;3.30;;;;;;;;;;5025637;28;20331;-67
2023/02/01 00:04:15;;;;;;;23.57;3.53;;;;;;;;;;5037880;28;20193;-67
2023/02/01 00:06:41;;;;;;;27.53;3.40;;;;;;;;;;5037915;28;20649;-65
2023/02/01 00:09:06;;;;;;;32.70;4.53;;;;;;;;;;5042717;28;20696;-68
2023/02/01 00:11:31;;;;;;;18.73;3.37;;;;;;;;;;5038915;28;20179;-67
2023/02/01 00:13:57;;;;;;;21.60;2.97;;;;;;;;;;5045090;28;20272;-66
2023/02/01 00:16:28;;;;;;;26.23;3.73;;;;;;;;;;5035911;28;20197;-65
2023/02/01 00:19:04;;;;;;;15.47;3.10;;;;;;;;;;5040341;28;20206;-67
2023/02/01 00:21:31;;;;;;;20.73;3.87;;;;;;;;;;5037158;28;20266;-67
2023/02/01 00:23:57;;;;;;;22.00;3.50;;;;;;;;;;5039251;28;21130;-66
2023/02/01 00:26:25;;;;;;;22.63;3.33;;;;;;;;;;5033252;28;20198;-67
2023/02/01 00:28:51;;;;;;;22.97;3.53;;;;;;;;;;5026985;28;20596;-67
2023/02/01 00:31:16;;;;;;;19.53;3.47;;;;;;;;;;5037617;28;20234;-66
2023/02/01 00:33:41;;;;;;;27.03;3.50;;;;;;;;;;5035291;28;20335;-66
2023/02/01 00:36:08;;;;;;;20.17;3.30;;;;;;;;;;5022820;28;20228;-67
2023/02/01 00:38:36;;;;;;;22.47;3.30;;;;;;;;;;5019650;28;20256;-67
2023/02/01 00:41:03;;;;;;;24.13;3.47;;;;;;;;;;5028215;28;20274;-67
2023/02/01 00:43:30;;;;;;;26.57;3.83;;;;;;;;;;5023116;28;20186;-67
2023/02/01 00:45:56;;;;;;;17.10;3.07;;;;;;;;;;5041716;28;20221;-67
2023/02/01 00:48:21;;;;;;;23.43;3.53;;;;;;;;;;5045487;28;20213;-67
2023/02/01 00:50:46;;;;;;;21.57;2.93;;;;;;;;;;5024894;28;20193;-67
2023/02/01 00:53:12;;;;;;;20.87;2.97;;;;;;;;;;5029959;28;20602;-67
2023/02/01 00:55:38;;;;;;;22.70;3.50;;;;;;;;;;5019424;28;20188;-67
2023/02/01 00:58:05;;;;;;;26.53;3.60;;;;;;;;;;5029326;28;20202;-69
2023/02/01 01:00:31;;;;;;;24.03;3.60;;;;;;;;;;5027905;28;20217;-66
2023/02/01 01:02:57;;;;;;;17.20;2.77;;;;;;;;;;5025538;28;20194;-67
2023/02/01 01:05:22;;;;;;;22.73;3.60;;;;;;;;;;5025846;28;20200;-67
2023/02/01 01:07:47;;;;;;;26.67;3.50;;;;;;;;;;5030164;28;20183;-67
2023/02/01 01:10:13;;;;;;;21.43;2.93;;;;;;;;;;5026692;28;20186;-67
2023/02/01 01:12:38;;;;;;;22.00;3.83;;;;;;;;;;5024305;28;20190;-67
2023/02/01 01:15:05;;;;;;;22.90;3.33;;;;;;;;;;5021850;28;20360;-67
2023/02/01 01:17:31;;;;;;;18.07;2.97;;;;;;;;;;5019974;28;20556;-66
2023/02/01 01:19:57;;;;;;;18.67;2.90;;;;;;;;;;5020632;28;20190;-67
2023/02/01 01:22:22;;;;;;;23.17;3.30;;;;;;;;;;5027602;28;20209;-66
2023/02/01 01:24:47;;;;;;;17.73;3.73;;;;;;;;;;5027418;28;20252;-67
2023/02/01 01:27:13;;;;;;;23.13;3.70;;;;;;;;;;5025322;28;20643;-67
2023/02/01 01:29:38;;;;;;;16.63;3.57;;;;;;;;;;5030891;28;20239;-67
2023/02/01 01:32:03;;;;;;;21.00;3.50;;;;;;;;;;5020543;28;20371;-67
2023/02/01 01:34:29;;;;;;;21.07;3.57;;;;;;;;;;5017090;28;20186;-67
2023/02/01 01:36:54;;;;;;;25.40;3.33;;;;;;;;;;5023994;28;20190;-67
2023/02/01 01:39:19;;;;;;;23.33;3.33;;;;;;;;;;5028187;28;20709;-67
2023/02/01 01:41:45;;;;;;;26.80;3.53;;;;;;;;;;5016620;28;20198;-67
2023/02/01 01:44:48;;;;;;;21.63;3.27;;;;;;;;;;5023238;28;20252;-67
2023/02/01 01:47:15;;;;;;;27.37;3.30;;;;;;;;;;5022008;28;20201;-67
2023/02/01 01:49:42;;;;;;;22.47;3.70;;;;;;;;;;5023583;28;20190;-68
2023/02/01 01:52:07;;;;;;;19.37;2.60;;;;;;;;;;5027044;28;20268;-66
2023/02/01 01:54:37;;;;;;;20.03;3.37;;;;;;;;;;5027383;28;20657;-66
2023/02/01 01:57:20;;;;;;;24.70;3.10;;;;;;;;;;5000632;28;20198;-66
2023/02/01 01:59:52;;;;;;;21.17;3.47;;;;;;;;;;5021091;28;20356;-66
2023/02/01 02:02:18;;;;;;;24.20;3.20;;;;;;;;;;5023791;28;20277;-66
2023/02/01 02:04:44;;;;;;;18.10;3.23;;;;;;;;;;5007866;28;20186;-66
2023/02/01 02:07:15;;;;;;;26.23;3.57;;;;;;;;;;5015658;28;20205;-66
2023/02/01 02:09:42;;;;;;;23.87;3.10;;;;;;;;;;5027995;28;20224;-66
2023/02/01 02:12:08;;;;;;;23.20;3.70;;;;;;;;;;5036678;28;20201;-66
2023/02/01 02:14:34;;;;;;;29.70;3.70;;;;;;;;;;5025384;28;20609;-66
2023/02/01 02:17:36;;;;;;;23.50;2.97;;;;;;;;;;5027540;28;20509;-66
2023/02/01 02:20:39;;;;;;;20.43;2.77;;;;;;;;;;5020689;28;20555;-66
2023/02/01 02:23:23;;;;;;;20.07;3.00;;;;;;;;;;5018028;28;20238;-66
2023/02/01 02:26:00;;;;;;;19.00;3.60;;;;;;;;;;5026018;28;20186;-66
2023/02/01 02:28:54;;;;;;;22.63;3.47;;;;;;;;;;5030346;28;20652;-66
2023/02/01 02:31:57;;;;;;;25.70;3.60;;;;;;;;;;5020588;28;20234;-66
2023/02/01 02:34:27;;;;;;;19.27;3.00;;;;;;;;;;5038446;28;20182;-66
2023/02/01 02:37:06;;;;;;;21.10;3.53;;;;;;;;;;5026270;28;20197;-66
2023/02/01 02:39:50;;;;;;;18.77;3.47;;;;;;;;;;5026517;28;20553;-66
2023/02/01 02:48:54;;;;;;;22.73;3.17;;;;;;;;;;5026856;28;20189;-66
2023/02/01 03:05:36;;;;;;;16.33;2.90;;;;;;;;;;5021179;28;20192;-66
2023/02/01 03:08:05;;;;;;;20.77;3.10;;;;;;;;;;5014187;28;20333;-66
2023/02/01 03:10:59;;;;;;;21.83;3.20;;;;;;;;;;5026542;28;20213;-66
2023/02/01 03:13:44;;;;;;;18.47;2.97;;;;;;;;;;5030872;28;20193;-66
2023/02/01 03:16:22;;;;;;;22.00;3.40;;;;;;;;;;5024871;28;20202;-66
2023/02/01 03:18:48;;;;;;;23.47;3.10;;;;;;;;;;5022996;28;20216;-66
2023/02/01 03:21:20;;;;;;;20.50;3.63;;;;;;;;;;5012329;28;20198;-66
2023/02/01 03:23:47;;;;;;;20.57;3.33;;;;;;;;;;5024125;28;20190;-66
2023/02/01 03:26:16;;;;;;;18.13;2.83;;;;;;;;;;5024639;28;20208;-66
2023/02/01 03:28:49;;;;;;;26.00;3.17;;;;;;;;;;5025062;28;20617;-66
2023/02/01 03:31:15;;;;;;;29.77;3.23;;;;;;;;;;5025227;28;20304;-66
2023/02/01 03:33:41;;;;;;;23.20;3.30;;;;;;;;;;5022508;28;20313;-66
2023/02/01 03:36:26;;;;;;;18.47;3.23;;;;;;;;;;5026710;28;20248;-66
2023/02/01 03:39:06;;;;;;;21.83;3.10;;;;;;;;;;5019356;28;20210;-66
2023/02/01 03:41:48;;;;;;;19.50;3.23;;;;;;;;;;5013093;28;20195;-66
2023/02/01 03:44:31;;;;;;;22.07;2.93;;;;;;;;;;5022334;28;20227;-67
2023/02/01 03:47:07;;;;;;;19.30;2.80;;;;;;;;;;5015435;28;20197;-67
2023/02/01 03:49:36;;;;;;;21.43;3.40;;;;;;;;;;5018768;28;20197;-66
2023/02/01 03:52:03;;;;;;;17.63;3.50;;;;;;;;;;5023415;28;20248;-66
2023/02/01 03:54:30;;;;;;;20.83;2.73;;;;;;;;;;5028288;28;20538;-66
2023/02/01 03:56:59;;;;;;;18.97;3.20;;;;;;;;;;5021583;28;20194;-66
2023/02/01 03:59:24;;;;;;;19.93;2.63;;;;;;;;;;5037856;28;20217;-66
2023/02/01 04:01:50;;;;;;;16.63;3.17;;;;;;;;;;5039936;28;20646;-66
2023/02/01 04:04:19;;;;;;;22.00;3.20;;;;;;;;;;5040693;28;20189;-68
2023/02/01 04:06:49;;;;;;;16.30;2.80;;;;;;;;;;5042955;28;20280;-66
2023/02/01 04:09:14;;;;;;;18.47;3.10;;;;;;;;;;5036375;28;20186;-66
2023/02/01 04:11:40;;;;;;;17.07;2.57;;;;;;;;;;5031241;28;20303;-66
2023/02/01 04:14:05;;;;;;;18.83;3.10;;;;;;;;;;5039285;28;20269;-66
2023/02/01 04:16:31;;;;;;;17.50;2.70;;;;;;;;;;5040996;28;20217;-66
2023/02/01 04:18:58;;;;;;;17.93;2.70;;;;;;;;;;5023613;28;20211;-66
2023/02/01 04:21:24;;;;;;;17.00;2.80;;;;;;;;;;5037519;28;20225;-66
2023/02/01 04:23:50;;;;;;;20.27;3.10;;;;;;;;;;5045409;28;20632;-67
2023/02/01 04:26:16;;;;;;;18.77;3.17;;;;;;;;;;5044104;28;20217;-66
2023/02/01 04:28:41;;;;;;;18.77;2.53;;;;;;;;;;5038807;28;20224;-66
2023/02/01 04:31:07;;;;;;;24.50;4.22;;;;;;;;;;5025823;28;20256;-67
2023/02/01 04:33:32;;;;;;;15.70;3.00;;;;;;;;;;5030017;28;20256;-66
2023/02/01 04:35:57;;;;;;;18.37;2.70;;;;;;;;;;5028935;28;20669;-66
2023/02/01 04:38:23;;;;;;;19.23;3.83;;;;;;;;;;5016027;28;20629;-67
2023/02/01 04:40:48;;;;;;;22.67;3.13;;;;;;;;;;5022373;28;20189;-66
2023/02/01 04:43:14;;;;;;;16.93;2.67;;;;;;;;;;5025180;28;20698;-66
2023/02/01 04:45:40;;;;;;;21.03;3.53;;;;;;;;;;5019150;28;20186;-66
2023/02/01 04:48:05;;;;;;;17.75;2.92;;;;;;;;;;5027522;28;20191;-66
2023/02/01 04:50:31;;;;;;;19.77;3.28;;;;;;;;;;5027751;28;20285;-68
2023/02/01 04:52:56;;;;;;;17.27;2.83;;;;;;;;;;5024392;28;20194;-66
2023/02/01 04:55:21;;;;;;;17.13;2.83;;;;;;;;;;5030467;28;20198;-66
2023/02/01 04:57:47;;;;;;;18.33;3.13;;;;;;;;;;5018752;28;20214;-66
2023/02/01 05:00:13;;;;;;;19.40;2.78;;;;;;;;;;5029699;28;20586;-67
2023/02/01 05:02:38;;;;;;;18.83;3.20;;;;;;;;;;5023158;28;20187;-66
2023/02/01 05:05:04;;;;;;;15.63;2.63;;;;;;;;;;5026029;28;20202;-66
2023/02/01 05:07:30;;;;;;;17.33;2.67;;;;;;;;;;5029284;28;20190;-66
2023/02/01 05:09:55;;;;;;;20.55;2.90;;;;;;;;;;5028551;28;20243;-66
2023/02/01 05:15:05;;;;;;;23.00;3.28;;;;;;;;;;5044121;28;20258;-67
2023/02/01 05:17:30;;;;;;;17.48;3.03;;;;;;;;;;5027968;28;20195;-66
2023/02/01 05:19:56;;;;;;;16.80;3.10;;;;;;;;;;5030448;28;20189;-66
2023/02/01 05:22:22;;;;;;;18.60;3.23;;;;;;;;;;5041008;28;20629;-67
2023/02/01 05:24:47;;;;;;;14.50;2.23;;;;;;;;;;5036313;28;20623;-66
2023/02/01 05:27:13;;;;;;;16.67;2.67;;;;;;;;;;5028300;28;20267;-67
2023/02/01 05:29:38;;;;;;;17.35;3.10;;;;;;;;;;5028944;28;20187;-66
2023/02/01 05:32:04;;;;;;;17.52;3.42;;;;;;;;;;5022473;28;20697;-66
2023/02/01 05:34:29;;;;;;;23.23;2.92;;;;;;;;;;5028495;28;20684;-67
2023/02/01 05:36:55;;;;;;;15.50;2.83;;;;;;;;;;5026417;28;20186;-66
2023/02/01 05:39:23;;;;;;;17.02;3.08;;;;;;;;;;5020885;28;20242;-67
2023/02/01 05:41:48;;;;;;;18.08;2.83;;;;;;;;;;5027045;28;20302;-69
2023/02/01 05:44:13;;;;;;;13.07;2.22;;;;;;;;;;5026404;28;20277;-67
2023/02/01 05:46:39;;;;;;;17.80;3.63;;;;;;;;;;5020231;28;20327;-68
2023/02/01 05:49:04;;;;;;;20.07;2.87;;;;;;;;;;5022529;28;20205;-66
2023/02/01 05:51:30;;;;;;;20.35;2.90;;;;;;;;;;5024106;28;20198;-65
2023/02/01 05:53:55;;;;;;;15.50;2.72;;;;;;;;;;5025978;28;20267;-66
2023/02/01 05:56:21;;;;;;;16.48;2.80;;;;;;;;;;5022274;28;20639;-66
2023/02/01 05:58:46;;;;;;;21.02;2.45;;;;;;;;;;5025986;28;20214;-66
2023/02/01 06:01:12;;;;;;;16.42;3.08;;;;;;;;;;5018000;28;20225;-66
2023/02/01 06:03:37;;;;;;;19.45;2.90;;;;;;;;;;5026939;28;20673;-66
2023/02/01 06:06:03;;;;;;;19.73;2.92;;;;;;;;;;5037195;28;20201;-66
2023/02/01 06:08:29;;;;;;;21.35;2.95;;;;;;;;;;5019566;28;20582;-66
2023/02/01 06:11:05;;;;;;;22.83;3.38;;;;;;;;;;5031183;28;20217;-66
2023/02/01 06:13:31;;;;;;;22.45;2.95;;;;;;;;;;5032151;28;20232;-67
2023/02/01 06:15:57;;;;;;;13.52;2.97;;;;;;;;;;5036489;28;20198;-66
2023/02/01 06:18:23;;;;;;;16.23;2.55;;;;;;;;;;5024007;28;20217;-66
2023/02/01 06:20:56;;;;;;;20.05;3.28;;;;;;;;;;5020869;28;20701;-66
2023/02/01 06:23:23;;;;;;;17.13;2.53;;;;;;;;;;5028695;28;20186;-66
2023/02/01 06:25:59;;;;;;;24.52;3.20;;;;;;;;;;5030230;28;20190;-66
2023/02/01 06:28:24;;;;;;;16.27;3.00;;;;;;;;;;5025477;28;20268;-66
2023/02/01 06:30:50;;;;;;;15.38;2.85;;;;;;;;;;5023287;28;20932;-67
2023/02/01 06:33:15;;;;;;;15.73;2.23;;;;;;;;;;5024105;28;20190;-67
2023/02/01 06:35:43;;;;;;;21.53;2.97;;;;;;;;;;5026371;28;20204;-67
2023/02/01 06:38:09;;;;;;;16.80;2.85;;;;;;;;;;5033573;28;20708;-67
2023/02/01 06:40:35;;;;;;;21.42;3.45;;;;;;;;;;5024447;28;20225;-67
2023/02/01 06:43:00;;;;;;;18.00;2.67;;;;;;;;;;5024265;28;20562;-67
2023/02/01 06:45:26;;;;;;;18.17;3.47;;;;;;;;;;5022214;28;20193;-67
2023/02/01 06:47:51;;;;;;;18.77;3.97;;;;;;;;;;5027550;28;20239;-67
2023/02/01 06:50:17;;;;;;;16.77;2.60;;;;;;;;;;5028592;28;20190;-66
2023/02/01 06:52:42;;;;;;;26.75;3.28;;;;;;;;;;5019734;28;20197;-66
2023/02/01 06:55:08;;;;;;;20.05;4.05;;;;;;;;;;5025339;28;20198;-66
2023/02/01 06:57:35;;;;;;;19.45;4.05;;;;;;;;;;5026142;28;20269;-66
2023/02/01 07:00:03;;;;;;;23.90;3.30;;;;;;;;;;5030985;28;20210;-66
2023/02/01 07:02:28;;;;;;;14.80;2.57;;;;;;;;;;5031435;28;20245;-66
2023/02/01 07:04:53;;;;;;;19.88;3.15;;;;;;;;;;5038129;28;20600;-66
2023/02/01 07:07:20;;;;;;;12.63;2.60;;;;;;;;;;5038106;28;20619;-66
2023/02/01 07:09:45;;;;;;;17.35;3.25;;;;;;;;;;5022137;28;20606;-66
2023/02/01 07:12:11;;;;;;;19.02;3.22;;;;;;;;;;5029025;28;20193;-66
2023/02/01 07:14:36;;;;;;;24.23;3.33;;;;;;;;;;5034129;28;20272;-66
2023/02/01 07:17:01;;;;;;;15.70;2.95;;;;;;;;;;5038914;28;20674;-67
2023/02/01 07:19:27;;;;;;;17.58;2.83;;;;;;;;;;5041925;28;20202;-67
2023/02/01 07:21:52;;;;;;;19.92;3.35;;;;;;;;;;5040617;28;20262;-67
2023/02/01 07:24:18;;;;;;;14.07;2.40;;;;;;;;;;5028735;28;20198;-67
2023/02/01 07:26:43;;;;;;;20.98;3.40;;;;;;;;;;5038029;28;20665;-67
2023/02/01 07:29:08;;;;;;;20.95;3.40;;;;;;;;;;5039735;28;20182;-67
2023/02/01 07:31:34;;;;;;;18.63;2.80;;;;;;;;;;5029664;28;20230;-66
2023/02/01 07:34:00;;;;;;;18.95;2.92;;;;;;;;;;5025858;28;20301;-67
2023/02/01 07:36:26;;;;;;;15.77;3.65;;;;;;;;;;5026942;28;20524;-67
2023/02/01 07:38:51;;;;;;;13.63;2.67;;;;;;;;;;5039265;28;20228;-68
2023/02/01 07:41:17;;;;;;;19.17;3.20;;;;;;;;;;5048430;28;20591;-67
2023/02/01 07:43:43;;;;;;;15.47;2.87;;;;;;;;;;5039125;28;20185;-67
2023/02/01 07:46:09;;;;;;;15.83;3.50;;;;;;;;;;5044897;28;20190;-67
2023/02/01 07:48:35;;;;;;;18.43;2.93;;;;;;;;;;5041881;28;20210;-67
2023/02/01 07:51:07;;;;;;;22.17;3.03;;;;;;;;;;5044439;28;20236;-66
2023/02/01 07:53:33;;;;;;;18.13;3.10;;;;;;;;;;5035662;28;20617;-66
2023/02/01 07:56:00;;;;;;;14.77;2.60;;;;;;;;;;5033112;28;20272;-66
2023/02/01 07:58:26;;;;;;;16.47;2.90;;;;;;;;;;5029179;28;20629;-66
2023/02/01 08:03:36;;;;;;;18.37;3.47;;;;;;;;;;5026620;28;20209;-67
2023/02/01 08:06:01;;;;;;;15.23;2.60;;;;;;;;;;5024866;28;20198;-66
2023/02/01 08:08:26;;;;;;;14.40;2.70;;;;;;;;;;5030620;28;20669;-66
2023/02/01 08:11:00;;;;;;;19.50;3.53;;;;;;;;;;5030029;28;20289;-67
2023/02/01 08:13:25;;;;;;;20.50;3.03;;;;;;;;;;5036921;28;20228;-67
2023/02/01 08:15:51;;;;;;;12.77;2.60;;;;;;;;;;5026393;28;20190;-67
2023/02/01 08:18:17;;;;;;;16.43;2.63;;;;;;;;;;5031695;28;20210;-67
2023/02/01 08:20:47;;;;;;;15.38;2.67;;;;;;;;;;5022343;28;20672;-67
2023/02/01 08:23:12;;;;;;;14.60;3.13;;;;;;;;;;5014894;28;20198;-68
2023/02/01 08:25:38;;;;;;;16.65;2.55;;;;;;;;;;5030060;28;20244;-66
2023/02/01 08:28:05;;;;;;;13.95;2.72;;;;;;;;;;5032870;28;20193;-66
2023/02/01 08:30:30;;;;;;;16.63;2.60;;;;;;;;;;5032790;28;20654;-66
2023/02/01 08:32:55;;;;;;;16.93;3.27;;;;;;;;;;5031415;28;20255;-67
2023/02/01 08:35:21;;;;;;;17.67;2.43;;;;;;;;;;5019128;28;20248;-66
2023/02/01 08:37:46;;;;;;;24.70;2.90;;;;;;;;;;5029942;28;20265;-66
2023/02/01 08:40:13;;;;;;;18.53;3.43;;;;;;;;;;5031467;28;20268;-66
2023/02/01 08:42:51;;;;;;;16.80;3.60;;;;;;;;;;5032466;28;20182;-67
2023/02/01 08:45:21;;;;;;;19.80;2.97;;;;;;;;;;5031220;28;20182;-66
2023/02/01 08:47:47;;;;;;;22.47;3.03;;;;;;;;;;5031812;28;20193;-66
2023/02/01 08:50:13;;;;;;;21.43;2.60;;;;;;;;;;5030557;28;20737;-67
2023/02/01 08:52:38;;;;;;;21.05;3.33;;;;;;;;;;5034635;28;20197;-68
2023/02/01 08:55:05;;;;;;;14.43;3.08;;;;;;;;;;5023167;28;20229;-68
2023/02/01 08:57:31;;;;;;;20.42;3.20;;;;;;;;;;5030240;28;20776;-67
2023/02/01 08:59:56;;;;;;;14.80;2.05;;;;;;;;;;5020377;28;20344;-67
2023/02/01 09:02:22;;;;;;;14.90;2.72;;;;;;;;;;5022066;28;20189;-67
2023/02/01 09:04:47;;;;;;;20.92;3.00;;;;;;;;;;5024565;28;20622;-66
2023/02/01 09:07:13;;;;;;;15.23;2.95;;;;;;;;;;5027444;28;20196;-67
2023/02/01 09:09:39;;;;;;;17.00;3.17;;;;;;;;;;5030132;28;20193;-67
2023/02/01 09:12:04;;;;;;;14.77;2.70;;;;;;;;;;5031272;28;20185;-67
2023/02/01 09:14:30;;;;;;;15.77;2.70;;;;;;;;;;5044227;28;20186;-68
2023/02/01 09:16:55;;;;;;;19.95;2.65;;;;;;;;;;5028986;28;20198;-68
2023/02/01 09:19:21;;;;;;;16.90;2.58;;;;;;;;;;5044734;28;20576;-68
2023/02/01 09:21:46;;;;;;;16.52;2.90;;;;;;;;;;5042954;28;20194;-68
2023/02/01 09:24:12;;;;;;;16.08;3.05;;;;;;;;;;5048832;28;20535;-67
2023/02/01 09:26:37;;;;;;;14.30;2.70;;;;;;;;;;5047720;28;20192;-67
2023/02/01 09:29:03;;;;;;;20.70;3.08;;;;;;;;;;5043718;28;20182;-67
2023/02/01 09:31:29;;;;;;;20.40;2.97;;;;;;;;;;5026090;28;20709;-65
2023/02/01 09:33:55;;;;;;;11.70;2.60;;;;;;;;;;5046207;28;20209;-66
2023/02/01 09:36:21;;;;;;;15.65;2.60;;;;;;;;;;5044393;28;20190;-67
2023/02/01 09:38:46;;;;;;;14.15;2.70;;;;;;;;;;5039948;28;20297;-67
2023/02/01 09:41:44;;;;;;;14.52;2.60;;;;;;;;;;5046228;28;20204;-67
2023/02/01 09:44:34;;;;;;;16.77;3.22;;;;;;;;;;5044128;28;20185;-67
2023/02/01 09:47:00;;;;;;;15.35;3.05;;;;;;;;;;5033791;28;20220;-66
2023/02/01 09:49:30;;;;;;;14.93;2.88;;;;;;;;;;5032350;28;20190;-66
2023/02/01 09:51:56;;;;;;;18.35;2.72;;;;;;;;;;5037213;28;20669;-67
2023/02/01 09:54:25;;;;;;;13.60;2.50;;;;;;;;;;5045134;28;20192;-67
2023/02/01 09:57:16;;;;;;;14.10;2.70;;;;;;;;;;5037473;28;20193;-68
2023/02/01 09:59:45;;;;;;;19.27;3.50;;;;;;;;;;5042718;28;20237;-66
2023/02/01 10:02:17;;;;;;;19.02;2.63;;;;;;;;;;5048900;28;20639;-65
2023/02/01 10:04:43;;;;;;;18.73;2.80;;;;;;;;;;5038015;28;20190;-65
2023/02/01 10:07:11;;;;;;;10.55;2.30;;;;;;;;;;5043034;28;20627;-66
2023/02/01 10:09:49;;;;;;;19.53;2.90;;;;;;;;;;5040894;28;20193;-66
2023/02/01 10:12:38;;;;;;;15.50;3.33;;;;;;;;;;5028793;28;20196;-65
2023/02/01 10:15:38;;;;;;;13.25;2.17;;;;;;;;;;5041645;28;20246;-66
2023/02/01 10:18:34;;;;;;;17.25;2.95;;;;;;;;;;5014729;28;20233;-65
2023/02/01 10:21:26;;;;;;;13.80;2.55;;;;;;;;;;5046124;28;20660;-66
2023/02/01 10:24:09;;;;;;;14.63;3.00;;;;;;;;;;5044889;28;20201;-66
2023/02/01 10:26:44;;;;;;;17.80;2.47;;;;;;;;;;5047079;28;20211;-66
2023/02/01 10:29:17;;;;;;;16.63;2.67;;;;;;;;;;5044404;28;20659;-65
2023/02/01 10:31:43;;;;;;;16.80;3.33;;;;;;;;;;5040235;28;20348;-65
2023/02/01 10:34:31;;;;;;;20.87;2.80;;;;;;;;;;5041464;28;20266;-65
2023/02/01 10:37:23;;;;;;;16.97;2.80;;;;;;;;;;5028987;28;20197;-69
2023/02/01 10:39:52;;;;;;;15.90;3.10;;;;;;;;;;5036605;28;20282;-69
2023/02/01 10:42:21;;;;;;;14.63;2.70;;;;;;;;;;5041768;28;20200;-72
2023/02/01 10:44:47;;;;;;;20.93;3.57;;;;;;;;;;5040275;28;20189;-69
2023/02/01 10:47:13;;;;;;;16.13;3.03;;;;;;;;;;5039252;28;20680;-70
2023/02/01 10:49:58;;;;;;;26.77;4.57;;;;;;;;;;5042422;28;20264;-70
2023/02/01 10:52:41;;;;;;;17.30;2.80;;;;;;;;;;5041407;28;20198;-70
2023/02/01 10:55:25;;;;;;;18.50;2.93;;;;;;;;;;5034834;28;20323;-70
2023/02/01 10:57:59;;;;;;;20.43;3.20;;;;;;;;;;5042332;28;20208;-72
2023/02/01 11:00:26;;;;;;;20.60;3.07;;;;;;;;;;5040598;28;20209;-70
2023/02/01 11:02:52;;;;;;;22.73;3.30;;;;;;;;;;5036732;28;20552;-71
2023/02/01 11:05:18;;;;;;;15.33;2.87;;;;;;;;;;5045090;28;20190;-71
2023/02/01 11:07:49;;;;;;;21.53;3.07;;;;;;;;;;5038672;28;20189;-71
2023/02/01 11:10:40;;;;;;;21.37;2.87;;;;;;;;;;5036937;28;20201;-70
2023/02/01 11:13:15;;;;;;;18.37;2.93;;;;;;;;;;5035614;28;20671;-69
2023/02/01 11:15:44;;;;;;;14.57;2.30;;;;;;;;;;5045233;28;20590;-69
2023/02/01 11:18:24;;;;;;;18.33;2.90;;;;;;;;;;5041935;28;20213;-70
2023/02/01 11:20:51;;;;;;;22.53;3.27;;;;;;;;;;5043713;28;20591;-69
2023/02/01 11:23:21;;;;;;;15.53;2.73;;;;;;;;;;5042249;28;20242;-68
2023/02/01 11:25:58;;;;;;;17.83;3.77;;;;;;;;;;5040891;28;20190;-69
2023/02/01 11:28:27;;;;;;;16.73;3.20;;;;;;;;;;5039463;28;20231;-70
2023/02/01 11:30:55;;;;;;;14.57;3.33;;;;;;;;;;5022965;28;20310;-69
2023/02/01 11:33:29;;;;;;;13.20;2.57;;;;;;;;;;5026803;28;20269;-68
2023/02/01 11:35:57;;;;;;;16.40;2.50;;;;;;;;;;5033429;28;20198;-68
2023/02/01 11:38:33;;;;;;;19.10;3.37;;;;;;;;;;5033185;28;20201;-69
2023/02/01 11:41:20;;;;;;;18.53;2.80;;;;;;;;;;5039637;28;20472;-69
2023/02/01 11:43:59;;;;;;;28.47;4.13;;;;;;;;;;5036500;28;20189;-69
2023/02/01 11:46:29;;;;;;;19.60;2.97;;;;;;;;;;5037964;28;20584;-68
2023/02/01 11:49:12;;;;;;;12.63;2.63;;;;;;;;;;5034193;28;20538;-69
2023/02/01 11:51:48;;;;;;;19.67;2.67;;;;;;;;;;5033299;28;20562;-69
2023/02/01 11:54:25;;;;;;;26.40;3.00;;;;;;;;;;5041907;28;20619;-68
2023/02/01 11:57:25;;;;;;;20.43;2.77;;;;;;;;;;5039282;28;20193;-69
2023/02/01 12:00:15;;;;;;;19.03;3.67;;;;;;;;;;5026435;28;20218;-68
2023/02/01 12:03:13;;;;;;;23.20;3.60;;;;;;;;;;5042721;28;20196;-70
2023/02/01 12:05:59;;;;;;;23.30;3.13;;;;;;;;;;5029150;28;20190;-68
2023/02/01 12:08:30;;;;;;;24.97;4.90;;;;;;;;;;5019190;28;21039;-68
2023/02/01 12:11:03;;;;;;;17.53;2.97;;;;;;;;;;5037647;28;20186;-69
2023/02/01 12:13:45;;;;;;;18.43;2.70;;;;;;;;;;5037461;28;20607;-68
2023/02/01 12:16:51;;;;;;;17.40;2.87;;;;;;;;;;5029285;28;20186;-68
2023/02/01 12:19:34;;;;;;;13.47;2.90;;;;;;;;;;5038141;28;20215;-69
2023/02/01 12:22:28;;;;;;;19.63;2.73;;;;;;;;;;5035390;28;20207;-68
2023/02/01 12:25:13;;;;;;;23.37;3.27;;;;;;;;;;5030975;28;20276;-69
2023/02/01 12:28:14;;;;;;;23.10;3.10;;;;;;;;;;5034954;28;20645;-68
2023/02/01 12:30:40;;;;;;;19.57;3.47;;;;;;;;;;5001378;28;20835;-68
2023/02/01 12:33:32;;;;;;;20.63;3.10;;;;;;;;;;5029355;28;20277;-69
2023/02/01 12:36:43;;;;;;;15.73;3.00;;;;;;;;;;5026429;28;20206;-69
2023/02/01 12:39:31;;;;;;;14.70;2.90;;;;;;;;;;5000864;28;20245;-70
2023/02/01 12:42:17;;;;;;;20.53;3.20;;;;;;;;;;5013598;28;20241;-69
2023/02/01 12:45:06;;;;;;;15.93;2.60;;;;;;;;;;5030691;28;20335;-70
2023/02/01 12:47:59;;;;;;;19.23;3.30;;;;;;;;;;5031501;28;20554;-69
2023/02/01 12:50:32;;;;;;;19.27;2.90;;;;;;;;;;5030685;28;20190;-70
2023/02/01 12:53:09;;;;;;;15.60;2.90;;;;;;;;;;5030975;28;20218;-68
2023/02/01 12:55:40;;;;;;;19.87;3.00;;;;;;;;;;5031601;28;20205;-69
2023/02/01 12:58:16;;;;;;;22.33;3.63;;;;;;;;;;5035430;28;20194;-69
2023/02/01 13:00:52;;;;;;;19.67;2.90;;;;;;;;;;5009395;28;20261;-69
2023/02/01 13:03:26;;;;;;;20.10;2.90;;;;;;;;;;5028520;28;20198;-70
2023/02/01 13:06:04;;;;;;;18.53;3.13;;;;;;;;;;5021459;28;20201;-69
2023/02/01 13:08:51;;;;;;;22.20;3.87;;;;;;;;;;5024925;28;20674;-70
2023/02/01 13:11:39;;;;;;;21.03;3.60;;;;;;;;;;5037175;28;20297;-68
2023/02/01 13:14:16;;;;;;;25.13;3.07;;;;;;;;;;5012555;28;20256;-68
2023/02/01 13:16:47;;;;;;;23.13;2.87;;;;;;;;;;5016440;28;20230;-69
2023/02/01 13:19:36;;;;;;;19.65;3.33;;;;;;;;;;5030207;28;20221;-69
2023/02/01 13:22:17;;;;;;;21.73;3.43;;;;;;;;;;5030349;28;20259;-67
2023/02/01 13:24:45;;;;;;;15.57;2.67;;;;;;;;;;5035808;28;20201;-69
2023/02/01 13:27:13;;;;;;;12.70;2.85;;;;;;;;;;5020787;28;21866;-70
2023/02/01 13:29:48;;;;;;;19.57;3.60;;;;;;;;;;5029422;28;20222;-68
2023/02/01 13:32:45;;;;;;;19.90;2.70;;;;;;;;;;5030117;28;20261;-69
2023/02/01 13:35:38;;;;;;;14.90;2.80;;;;;;;;;;5031659;28;20288;-71
2023/02/01 13:38:26;;;;;;;22.63;3.33;;;;;;;;;;5030248;28;20672;-68
2023/02/01 13:41:24;;;;;;;18.20;3.55;;;;;;;;;;5038495;28;20190;-68
2023/02/01 13:43:52;;;;;;;14.93;2.40;;;;;;;;;;5037868;28;20280;-70
2023/02/01 13:46:19;;;;;;;21.23;3.33;;;;;;;;;;5036934;28;20192;-69
2023/02/01 13:48:57;;;;;;;23.80;3.23;;;;;;;;;;5035042;28;20641;-70
2023/02/01 13:51:41;;;;;;;22.83;3.47;;;;;;;;;;5038700;28;20244;-69
2023/02/01 13:54:22;;;;;;;21.53;3.27;;;;;;;;;;5042916;28;20189;-69
2023/02/01 13:56:47;;;;;;;16.07;2.87;;;;;;;;;;5027535;28;20215;-69
2023/02/01 13:59:48;;;;;;;27.47;3.70;;;;;;;;;;5041425;28;20210;-70
2023/02/01 14:02:36;;;;;;;23.53;3.17;;;;;;;;;;5035622;28;20605;-69
2023/02/01 14:05:01;;;;;;;28.40;4.40;;;;;;;;;;5035686;28;20239;-69
2023/02/01 14:07:27;;;;;;;23.80;4.03;;;;;;;;;;5037400;28;20229;-69
2023/02/01 14:09:53;;;;;;;18.87;3.30;;;;;;;;;;5047236;28;20667;-69
2023/02/01 14:12:45;;;;;;;16.63;2.80;;;;;;;;;;5042252;28;20264;-68
2023/02/01 14:15:18;;;;;;;18.27;3.03;;;;;;;;;;5044335;28;20216;-69
2023/02/01 14:17:43;;;;;;;20.03;3.47;;;;;;;;;;5038342;28;20274;-69
2023/02/01 14:20:47;;;;;;;17.77;3.33;;;;;;;;;;5039235;28;20213;-72
2023/02/01 14:23:16;;;;;;;29.87;4.40;;;;;;;;;;5036517;28;20197;-69
2023/02/01 14:25:44;;;;;;;24.03;4.17;;;;;;;;;;5036169;28;20686;-69
2023/02/01 14:28:24;;;;;;;15.23;3.30;;;;;;;;;;5040785;28;20234;-71
2023/02/01 14:30:50;;;;;;;26.27;3.57;;;;;;;;;;5043265;28;20247;-73
2023/02/01 14:33:26;;;;;;;24.80;3.80;;;;;;;;;;5047120;28;20272;-72
2023/02/01 14:36:13;;;;;;;30.33;4.30;;;;;;;;;;5040018;28;20668;-70
2023/02/01 14:38:46;;;;;;;18.27;3.23;;;;;;;;;;5043643;28;20676;-70
2023/02/01 14:41:33;;;;;;;25.23;3.87;;;;;;;;;;5042484;28;20186;-70
2023/02/01 14:43:58;;;;;;;25.20;3.27;;;;;;;;;;5043627;28;20262;-71
2023/02/01 14:47:01;;;;;;;24.70;3.17;;;;;;;;;;5031540;28;20194;-70
2023/02/01 14:49:33;;;;;;;20.53;3.57;;;;;;;;;;5036631;28;20213;-68
2023/02/01 14:51:59;;;;;;;28.00;3.77;;;;;;;;;;5036404;28;20225;-69
2023/02/01 14:54:25;;;;;;;24.83;3.35;;;;;;;;;;5033104;28;20228;-69
2023/02/01 14:56:52;;;;;;;19.92;3.20;;;;;;;;;;5036390;28;20324;-69
2023/02/01 14:59:22;;;;;;;27.88;3.97;;;;;;;;;;5042936;28;20547;-68
2023/02/01 15:01:56;;;;;;;20.70;3.22;;;;;;;;;;5023085;28;20209;-69
2023/02/01 15:04:26;;;;;;;21.60;3.25;;;;;;;;;;5028025;28;20194;-69
2023/02/01 15:06:58;;;;;;;24.05;3.72;;;;;;;;;;5022648;28;20256;-68
2023/02/01 15:09:23;;;;;;;21.00;3.63;;;;;;;;;;5031268;28;20186;-69
2023/02/01 15:12:04;;;;;;;20.92;3.10;;;;;;;;;;5009182;28;20209;-69
2023/02/01 15:14:33;;;;;;;21.02;3.40;;;;;;;;;;5047234;28;20224;-71
2023/02/01 15:16:58;;;;;;;22.25;3.70;;;;;;;;;;4327267;28;10000717;-76
2023/02/01 15:19:27;;;;;;;24.23;3.60;;;;;;;;;;5020076;28;20232;-73
2023/02/01 15:21:57;;;;;;;18.73;3.80;;;;;;;;;;5027848;28;20720;-68
2023/02/01 15:24:25;;;;;;;23.17;4.13;;;;;;;;;;5022582;28;20543;-69